createdAt,value
2018-04-20T00:00:31.568Z,0.00
2018-04-20T00:01:31.629Z,0.00
2018-04-20T00:02:31.689Z,0.00
2018-04-20T00:03:31.751Z,0.00
2018-04-20T00:04:31.810Z,0.00
2018-04-20T00:05:31.871Z,0.00
2018-04-20T00:06:31.932Z,0.00
2018-04-20T00:07:31.993Z,0.00
2018-04-20T00:08:32.053Z,0.00
2018-04-20T00:09:32.112Z,0.00
2018-04-20T00:10:32.174Z,0.00
2018-04-20T00:11:32.235Z,0.00
2018-04-20T00:12:32.295Z,0.00
2018-04-20T00:13:32.357Z,0.00
2018-04-20T00:14:32.417Z,0.00
2018-04-20T00:15:32.477Z,0.00
2018-04-20T00:16:32.540Z,0.00
2018-04-20T00:17:32.599Z,0.00
2018-04-20T00:18:32.659Z,0.00
2018-04-20T00:19:32.718Z,0.00
2018-04-20T00:20:32.779Z,0.00
2018-04-20T00:21:32.838Z,0.00
2018-04-20T00:22:32.898Z,0.00
2018-04-20T00:23:32.961Z,0.00
2018-04-20T00:24:33.020Z,0.00
2018-04-20T00:25:33.080Z,0.00
2018-04-20T00:26:33.145Z,0.00
2018-04-20T00:27:33.201Z,0.00
2018-04-20T00:28:33.262Z,0.00
2018-04-20T00:29:33.322Z,0.00
2018-04-20T00:30:33.583Z,0.00
2018-04-20T00:31:33.458Z,0.00
2018-04-20T00:32:33.503Z,0.00
2018-04-20T00:33:33.563Z,0.00
2018-04-20T00:34:33.624Z,0.00
2018-04-20T00:35:33.684Z,0.00
2018-04-20T00:36:33.744Z,0.00
2018-04-20T00:37:33.807Z,0.00
2018-04-20T00:38:33.866Z,0.00
2018-04-20T00:39:33.926Z,0.00
2018-04-20T00:40:33.985Z,0.00
2018-04-20T00:41:34.045Z,0.00
2018-04-20T00:42:34.107Z,0.00
2018-04-20T00:43:34.171Z,0.00
2018-04-20T00:44:34.227Z,0.00
2018-04-20T00:45:34.287Z,0.00
2018-04-20T00:46:34.346Z,0.00
2018-04-20T00:47:34.407Z,0.00
2018-04-20T00:48:34.717Z,0.00
2018-04-20T00:49:34.527Z,0.00
2018-04-20T00:50:34.588Z,0.00
2018-04-20T00:51:34.647Z,0.00
2018-04-20T00:52:34.709Z,0.00
2018-04-20T00:53:34.768Z,0.00
2018-04-20T00:54:34.829Z,0.00
2018-04-20T00:55:34.889Z,0.00
2018-04-20T00:56:34.948Z,0.00
2018-04-20T00:57:35.009Z,0.00
2018-04-20T00:58:35.070Z,0.00
2018-04-20T00:59:35.129Z,0.00
2018-04-20T01:00:35.191Z,0.00
2018-04-20T01:01:35.249Z,0.00
2018-04-20T01:02:35.310Z,0.00
2018-04-20T01:03:35.370Z,0.00
2018-04-20T01:04:35.429Z,0.00
2018-04-20T01:05:35.489Z,0.00
2018-04-20T01:06:35.551Z,0.00
2018-04-20T01:07:35.613Z,0.00
2018-04-20T01:08:35.669Z,0.00
2018-04-20T01:09:35.730Z,0.00
2018-04-20T01:10:35.791Z,0.00
2018-04-20T01:11:35.849Z,0.00
2018-04-20T01:12:35.910Z,0.00
2018-04-20T01:13:35.971Z,0.00
2018-04-20T01:14:36.032Z,0.00
2018-04-20T01:15:36.090Z,0.00
2018-04-20T01:16:36.149Z,0.00
2018-04-20T01:17:36.208Z,0.00
2018-04-20T01:18:36.273Z,0.00
2018-04-20T01:19:36.330Z,0.00
2018-04-20T01:20:36.389Z,0.00
2018-04-20T01:21:36.451Z,0.00
2018-04-20T01:22:36.510Z,0.00
2018-04-20T01:23:36.570Z,0.00
2018-04-20T01:24:36.628Z,0.00
2018-04-20T01:25:36.690Z,0.00
2018-04-20T01:26:36.749Z,0.00
2018-04-20T01:27:36.810Z,0.00
2018-04-20T01:28:36.870Z,0.00
2018-04-20T01:29:36.930Z,0.00
2018-04-20T01:30:36.991Z,0.00
2018-04-20T01:31:37.049Z,0.00
2018-04-20T01:32:37.109Z,0.00
2018-04-20T01:33:37.170Z,0.00
2018-04-20T01:34:37.229Z,0.00
2018-04-20T01:35:37.289Z,0.00
2018-04-20T01:36:37.348Z,0.00
2018-04-20T01:37:37.408Z,0.00
2018-04-20T01:38:37.469Z,0.00
2018-04-20T01:39:37.528Z,0.00
2018-04-20T01:40:37.587Z,0.00
2018-04-20T01:41:37.647Z,0.00
2018-04-20T01:42:37.709Z,0.00
2018-04-20T01:43:56.975Z,0.00
2018-04-20T01:44:37.827Z,0.00
2018-04-20T01:45:37.888Z,0.00
2018-04-20T01:46:37.949Z,0.00
2018-04-20T01:47:38.008Z,0.00
2018-04-20T01:48:38.067Z,0.00
2018-04-20T01:49:38.127Z,0.00
2018-04-20T01:50:38.188Z,0.00
2018-04-20T01:51:38.246Z,0.00
2018-04-20T01:52:38.306Z,0.00
2018-04-20T01:53:38.366Z,0.00
2018-04-20T01:54:38.425Z,0.00
2018-04-20T01:55:38.519Z,0.00
2018-04-20T01:56:38.544Z,0.00
2018-04-20T01:57:38.605Z,0.00
2018-04-20T01:58:38.665Z,0.00
2018-04-20T01:59:38.724Z,0.00
2018-04-20T02:00:38.784Z,0.00
2018-04-20T02:01:38.844Z,0.00
2018-04-20T02:02:38.904Z,0.00
2018-04-20T02:03:38.964Z,0.00
2018-04-20T02:04:39.027Z,0.00
2018-04-20T02:05:39.084Z,0.00
2018-04-20T02:06:39.144Z,0.00
2018-04-20T02:07:39.204Z,0.00
2018-04-20T02:08:39.262Z,0.00
2018-04-20T02:09:39.323Z,0.00
2018-04-20T02:10:39.386Z,0.00
2018-04-20T02:11:39.443Z,0.00
2018-04-20T02:12:39.502Z,0.00
2018-04-20T02:13:39.562Z,0.00
2018-04-20T02:14:39.623Z,0.00
2018-04-20T02:15:39.682Z,0.00
2018-04-20T02:16:39.740Z,0.00
2018-04-20T02:17:39.800Z,0.00
2018-04-20T02:18:39.860Z,0.00
2018-04-20T02:19:39.926Z,0.00
2018-04-20T02:20:39.981Z,0.00
2018-04-20T02:21:40.045Z,0.00
2018-04-20T02:22:40.099Z,0.00
2018-04-20T02:23:40.159Z,0.00
2018-04-20T02:24:40.217Z,0.00
2018-04-20T02:25:40.278Z,0.00
2018-04-20T02:26:40.339Z,0.00
2018-04-20T02:27:40.396Z,0.00
2018-04-20T02:28:40.456Z,0.00
2018-04-20T02:29:40.518Z,0.00
2018-04-20T02:30:40.575Z,0.00
2018-04-20T02:31:40.635Z,0.00
2018-04-20T02:32:40.695Z,0.00
2018-04-20T02:33:40.754Z,0.00
2018-04-20T02:34:40.815Z,0.00
2018-04-20T02:35:40.873Z,0.00
2018-04-20T02:36:40.932Z,0.00
2018-04-20T02:37:40.992Z,0.00
2018-04-20T02:38:41.052Z,0.00
2018-04-20T02:39:41.110Z,0.00
2018-04-20T02:40:41.170Z,0.00
2018-04-20T02:41:41.229Z,0.00
2018-04-20T02:42:41.291Z,0.00
2018-04-20T02:43:41.349Z,0.00
2018-04-20T02:44:41.411Z,0.00
2018-04-20T02:45:41.468Z,0.00
2018-04-20T02:46:41.529Z,0.00
2018-04-20T02:47:41.588Z,0.00
2018-04-20T02:48:41.645Z,0.00
2018-04-20T02:49:41.706Z,0.00
2018-04-20T02:50:41.765Z,0.00
2018-04-20T02:51:41.826Z,0.00
2018-04-20T02:52:41.888Z,0.00
2018-04-20T02:53:41.944Z,0.00
2018-04-20T02:54:42.002Z,0.00
2018-04-20T02:55:42.078Z,0.00
2018-04-20T02:56:42.122Z,0.00
2018-04-20T02:57:42.182Z,0.00
2018-04-20T02:58:42.242Z,0.00
2018-04-20T02:59:42.300Z,0.00
2018-04-20T03:00:42.363Z,0.00
2018-04-20T03:01:42.418Z,0.00
2018-04-20T03:02:42.476Z,0.00
2018-04-20T03:03:42.537Z,0.00
2018-04-20T03:04:42.601Z,0.00
2018-04-20T03:05:42.654Z,0.00
2018-04-20T03:06:42.715Z,0.00
2018-04-20T03:07:42.777Z,0.00
2018-04-20T03:08:42.837Z,0.00
2018-04-20T03:09:42.893Z,0.00
2018-04-20T03:10:42.950Z,0.00
2018-04-20T03:11:43.009Z,0.00
2018-04-20T03:12:43.067Z,0.00
2018-04-20T03:13:43.126Z,0.00
2018-04-20T03:14:43.186Z,0.00
2018-04-20T03:15:43.245Z,0.00
2018-04-20T03:16:43.306Z,0.00
2018-04-20T03:17:43.364Z,0.00
2018-04-20T03:18:43.422Z,0.00
2018-04-20T03:19:43.483Z,0.00
2018-04-20T03:20:43.542Z,0.00
2018-04-20T03:21:43.601Z,0.00
2018-04-20T03:22:43.659Z,0.00
2018-04-20T03:23:43.719Z,0.00
2018-04-20T03:24:43.779Z,0.00
2018-04-20T03:25:43.837Z,0.00
2018-04-20T03:26:43.897Z,0.00
2018-04-20T03:27:43.957Z,0.00
2018-04-20T03:28:44.015Z,0.00
2018-04-20T03:29:44.073Z,0.00
2018-04-20T03:30:44.135Z,0.00
2018-04-20T03:31:44.194Z,0.00
2018-04-20T03:32:44.251Z,0.00
2018-04-20T03:33:44.314Z,0.00
2018-04-20T03:34:44.368Z,0.00
2018-04-20T03:35:44.428Z,0.00
2018-04-20T03:36:44.487Z,0.00
2018-04-20T03:37:44.796Z,0.00
2018-04-20T03:38:44.606Z,0.00
2018-04-20T03:39:44.665Z,0.00
2018-04-20T03:40:44.725Z,0.00
2018-04-20T03:41:44.782Z,0.00
2018-04-20T03:42:44.843Z,0.00
2018-04-20T03:43:44.904Z,0.00
2018-04-20T03:44:44.960Z,0.00
2018-04-20T03:45:45.020Z,0.00
2018-04-20T03:46:45.081Z,0.00
2018-04-20T03:47:45.137Z,0.00
2018-04-20T03:48:45.196Z,0.00
2018-04-20T03:49:45.256Z,0.00
2018-04-20T03:50:45.315Z,0.00
2018-04-20T03:51:45.373Z,0.00
2018-04-20T03:52:45.433Z,0.00
2018-04-20T03:53:45.494Z,0.00
2018-04-20T03:54:45.551Z,0.00
2018-04-20T03:55:45.611Z,0.00
2018-04-20T03:56:45.666Z,0.00
2018-04-20T03:57:45.730Z,0.00
2018-04-20T03:58:45.786Z,0.00
2018-04-20T03:59:45.846Z,0.00
2018-04-20T04:00:45.959Z,0.00
2018-04-20T04:01:45.963Z,0.00
2018-04-20T04:02:46.023Z,0.00
2018-04-20T04:03:46.081Z,0.00
2018-04-20T04:04:46.139Z,0.00
2018-04-20T04:05:46.199Z,0.00
2018-04-20T04:06:46.257Z,0.00
2018-04-20T04:07:46.318Z,0.00
2018-04-20T04:08:46.375Z,0.00
2018-04-20T04:09:46.434Z,0.00
2018-04-20T04:10:46.522Z,0.00
2018-04-20T04:11:46.550Z,0.00
2018-04-20T04:12:46.610Z,0.00
2018-04-20T04:13:46.669Z,0.00
2018-04-20T04:14:46.728Z,0.00
2018-04-20T04:15:46.788Z,0.00
2018-04-20T04:16:46.845Z,0.00
2018-04-20T04:17:46.904Z,0.00
2018-04-20T04:18:46.963Z,0.00
2018-04-20T04:19:47.024Z,0.00
2018-04-20T04:20:47.086Z,0.00
2018-04-20T04:21:47.505Z,5.63
2018-04-20T04:22:47.239Z,5.63
2018-04-20T04:23:47.261Z,5.63
2018-04-20T04:24:47.316Z,5.63
2018-04-20T04:25:47.374Z,5.63
2018-04-20T04:26:47.432Z,5.63
2018-04-20T04:27:47.494Z,11.25
2018-04-20T04:28:47.550Z,11.25
2018-04-20T04:29:47.612Z,11.25
2018-04-20T04:30:47.668Z,11.25
2018-04-20T04:31:47.726Z,11.25
2018-04-20T04:32:47.785Z,16.88
2018-04-20T04:33:47.843Z,16.88
2018-04-20T04:34:47.902Z,16.88
2018-04-20T04:35:47.988Z,22.50
2018-04-20T04:36:48.019Z,22.50
2018-04-20T04:37:48.078Z,22.50
2018-04-20T04:38:48.137Z,22.50
2018-04-20T04:39:48.196Z,28.13
2018-04-20T04:40:48.252Z,28.13
2018-04-20T04:41:48.313Z,28.13
2018-04-20T04:42:48.371Z,33.75
2018-04-20T04:43:48.430Z,33.75
2018-04-20T04:44:48.488Z,33.75
2018-04-20T04:45:48.547Z,39.38
2018-04-20T04:46:48.605Z,39.38
2018-04-20T04:47:48.665Z,39.38
2018-04-20T04:48:48.723Z,45.00
2018-04-20T04:49:48.780Z,45.00
2018-04-20T04:50:48.841Z,45.00
2018-04-20T04:51:49.247Z,50.63
2018-04-20T04:52:48.964Z,50.63
2018-04-20T04:53:49.015Z,56.25
2018-04-20T04:54:49.075Z,56.25
2018-04-20T04:55:49.132Z,56.25
2018-04-20T04:56:50.038Z,61.88
2018-04-20T04:57:49.249Z,61.88
2018-04-20T04:58:49.307Z,61.88
2018-04-20T04:59:49.371Z,67.50
2018-04-20T05:00:49.425Z,67.50
2018-04-20T05:01:49.521Z,73.13
2018-04-20T05:02:49.546Z,73.13
2018-04-20T05:03:49.743Z,73.13
2018-04-20T05:04:49.661Z,78.75
2018-04-20T05:05:49.719Z,78.75
2018-04-20T05:06:49.779Z,84.38
2018-04-20T05:07:49.837Z,84.38
2018-04-20T05:08:49.894Z,84.38
2018-04-20T05:09:49.955Z,90.00
2018-04-20T05:10:50.658Z,90.00
2018-04-20T05:11:50.073Z,95.63
2018-04-20T05:12:50.131Z,95.63
2018-04-20T05:13:50.189Z,101.25
2018-04-20T05:14:50.249Z,101.25
2018-04-20T05:15:50.307Z,101.25
2018-04-20T05:16:50.365Z,106.88
2018-04-20T05:17:50.425Z,106.88
2018-04-20T05:18:50.484Z,112.50
2018-04-20T05:19:50.616Z,112.50
2018-04-20T05:20:50.601Z,112.50
2018-04-20T05:21:50.678Z,118.13
2018-04-20T05:22:50.766Z,118.13
2018-04-20T05:23:50.778Z,118.13
2018-04-20T05:24:51.151Z,123.75
2018-04-20T05:25:50.896Z,123.75
2018-04-20T05:26:50.962Z,129.38
2018-04-20T05:27:51.012Z,129.38
2018-04-20T05:28:51.071Z,129.38
2018-04-20T05:29:51.284Z,135.00
2018-04-20T05:30:51.190Z,135.00
2018-04-20T05:31:51.249Z,135.00
2018-04-20T05:32:51.344Z,140.63
2018-04-20T05:33:51.367Z,140.63
2018-04-20T05:34:51.426Z,146.25
2018-04-20T05:35:51.484Z,146.25
2018-04-20T05:36:51.543Z,146.25
2018-04-20T05:37:51.602Z,151.88
2018-04-20T05:38:51.662Z,151.88
2018-04-20T05:39:51.723Z,151.88
2018-04-20T05:40:51.779Z,157.50
2018-04-20T05:41:51.839Z,157.50
2018-04-20T05:42:51.897Z,163.13
2018-04-20T05:43:51.963Z,163.13
2018-04-20T05:44:52.017Z,163.13
2018-04-20T05:45:52.076Z,168.75
2018-04-20T05:46:52.135Z,163.13
2018-04-20T05:47:52.195Z,163.13
2018-04-20T05:48:52.253Z,168.75
2018-04-20T05:49:52.311Z,168.75
2018-04-20T05:50:52.375Z,168.75
2018-04-20T05:51:52.430Z,174.38
2018-04-20T05:52:52.489Z,174.38
2018-04-20T05:53:52.548Z,174.38
2018-04-20T05:54:52.609Z,180.00
2018-04-20T05:55:52.667Z,180.00
2018-04-20T05:56:52.734Z,180.00
2018-04-20T05:57:52.786Z,185.63
2018-04-20T05:58:52.846Z,185.63
2018-04-20T05:59:52.935Z,185.63
2018-04-20T06:00:52.963Z,191.25
2018-04-20T06:01:53.027Z,191.25
2018-04-20T06:02:53.083Z,191.25
2018-04-20T06:03:53.142Z,196.88
2018-04-20T06:04:53.201Z,196.88
2018-04-20T06:05:53.260Z,196.88
2018-04-20T06:06:53.321Z,202.50
2018-04-20T06:07:53.380Z,202.50
2018-04-20T06:08:53.440Z,202.50
2018-04-20T06:09:53.499Z,208.13
2018-04-20T06:10:53.955Z,208.13
2018-04-20T06:11:53.622Z,208.13
2018-04-20T06:12:53.677Z,213.75
2018-04-20T06:13:53.740Z,213.75
2018-04-20T06:14:53.805Z,213.75
2018-04-20T06:15:53.857Z,213.75
2018-04-20T06:16:53.916Z,213.75
2018-04-20T06:17:53.977Z,219.38
2018-04-20T06:18:54.036Z,219.38
2018-04-20T06:19:54.697Z,219.38
2018-04-20T06:20:54.155Z,225.00
2018-04-20T06:21:54.217Z,225.00
2018-04-20T06:22:54.275Z,225.00
2018-04-20T06:23:54.336Z,225.00
2018-04-20T06:24:54.397Z,230.63
2018-04-20T06:25:54.455Z,230.63
2018-04-20T06:26:54.513Z,230.63
2018-04-20T06:27:54.573Z,236.25
2018-04-20T06:28:54.633Z,236.25
2018-04-20T06:29:54.694Z,236.25
2018-04-20T06:30:54.754Z,241.88
2018-04-20T06:31:54.818Z,241.88
2018-04-20T06:32:54.935Z,241.88
2018-04-20T06:33:54.934Z,247.50
2018-04-20T06:34:54.995Z,247.50
2018-04-20T06:35:55.056Z,247.50
2018-04-20T06:36:55.120Z,247.50
2018-04-20T06:37:55.176Z,253.13
2018-04-20T06:38:55.235Z,253.13
2018-04-20T06:39:55.296Z,253.13
2018-04-20T06:40:55.356Z,258.75
2018-04-20T06:41:55.419Z,258.75
2018-04-20T06:42:55.478Z,258.75
2018-04-20T06:43:55.688Z,264.38
2018-04-20T06:44:55.599Z,264.38
2018-04-20T06:45:55.658Z,264.38
2018-04-20T06:46:55.718Z,270.00
2018-04-20T06:47:55.780Z,270.00
2018-04-20T06:48:55.839Z,270.00
2018-04-20T06:49:55.900Z,270.00
2018-04-20T06:50:55.960Z,275.63
2018-04-20T06:51:56.022Z,275.63
2018-04-20T06:52:56.081Z,275.63
2018-04-20T06:53:56.150Z,281.25
2018-04-20T06:54:56.203Z,281.25
2018-04-20T06:55:56.264Z,281.25
2018-04-20T06:56:56.344Z,281.25
2018-04-20T06:57:56.385Z,286.88
2018-04-20T06:58:56.444Z,286.88
2018-04-20T06:59:56.507Z,286.88
2018-04-20T07:00:56.579Z,292.50
2018-04-20T07:01:56.628Z,292.50
2018-04-20T07:02:56.687Z,292.50
2018-04-20T07:03:56.750Z,292.50
2018-04-20T07:04:56.813Z,298.13
2018-04-20T07:05:56.872Z,298.13
2018-04-20T07:06:56.933Z,298.13
2018-04-20T07:07:56.996Z,303.75
2018-04-20T07:08:57.053Z,303.75
2018-04-20T07:09:57.116Z,303.75
2018-04-20T07:10:57.175Z,303.75
2018-04-20T07:11:57.267Z,309.38
2018-04-20T07:12:57.299Z,309.38
2018-04-20T07:13:57.359Z,309.38
2018-04-20T07:14:57.422Z,309.38
2018-04-20T07:15:57.487Z,315.00
2018-04-20T07:16:57.545Z,315.00
2018-04-20T07:17:57.604Z,315.00
2018-04-20T07:18:57.666Z,315.00
2018-04-20T07:19:57.726Z,320.63
2018-04-20T07:20:57.789Z,320.63
2018-04-20T07:21:57.849Z,320.63
2018-04-20T07:22:57.911Z,320.63
2018-04-20T07:23:58.223Z,326.25
2018-04-20T07:24:58.034Z,326.25
2018-04-20T07:25:58.100Z,326.25
2018-04-20T07:26:58.157Z,326.25
2018-04-20T07:27:58.218Z,331.88
2018-04-20T07:28:58.279Z,331.88
2018-04-20T07:29:58.373Z,331.88
2018-04-20T07:30:58.403Z,331.88
2018-04-20T07:31:58.465Z,337.50
2018-04-20T07:32:58.526Z,337.50
2018-04-20T07:33:58.587Z,337.50
2018-04-20T07:34:58.649Z,337.50
2018-04-20T07:35:58.712Z,337.50
2018-04-20T07:36:58.772Z,343.13
2018-04-20T07:37:58.836Z,343.13
2018-04-20T07:38:58.897Z,343.13
2018-04-20T07:39:58.964Z,343.13
2018-04-20T07:40:59.020Z,343.13
2018-04-20T07:41:59.085Z,348.75
2018-04-20T07:42:59.144Z,348.75
2018-04-20T07:43:59.206Z,348.75
2018-04-20T07:44:59.268Z,354.38
2018-04-20T07:45:59.648Z,354.38
2018-04-20T07:46:59.390Z,354.38
2018-04-20T07:47:59.454Z,354.38
2018-04-20T07:48:59.514Z,360.00
2018-04-20T07:49:59.579Z,360.00
2018-04-20T07:50:59.644Z,360.00
2018-04-20T07:51:59.702Z,360.00
2018-04-20T07:52:59.762Z,360.00
2018-04-20T07:53:59.825Z,360.00
2018-04-20T07:54:59.887Z,360.00
2018-04-20T07:55:59.950Z,365.63
2018-04-20T07:57:00.013Z,365.63
2018-04-20T07:58:00.075Z,365.63
2018-04-20T07:59:00.137Z,365.63
2018-04-20T08:00:00.200Z,371.25
2018-04-20T08:01:00.266Z,365.63
2018-04-20T08:02:00.325Z,365.63
2018-04-20T08:03:00.388Z,365.63
2018-04-20T08:04:00.604Z,371.25
2018-04-20T08:05:00.512Z,371.25
2018-04-20T08:06:00.574Z,376.88
2018-04-20T08:07:00.638Z,376.88
2018-04-20T08:08:00.700Z,376.88
2018-04-20T08:09:00.762Z,376.88
2018-04-20T08:10:00.824Z,376.88
2018-04-20T08:11:00.891Z,382.50
2018-04-20T08:12:00.950Z,382.50
2018-04-20T08:13:01.015Z,382.50
2018-04-20T08:14:01.074Z,382.50
2018-04-20T08:15:01.139Z,382.50
2018-04-20T08:16:01.555Z,382.50
2018-04-20T08:17:01.264Z,382.50
2018-04-20T08:18:01.326Z,388.13
2018-04-20T08:19:01.390Z,388.13
2018-04-20T08:20:01.510Z,388.13
2018-04-20T08:21:01.515Z,393.75
2018-04-20T08:22:01.888Z,388.13
2018-04-20T08:23:01.645Z,393.75
2018-04-20T08:24:01.704Z,393.75
2018-04-20T08:25:01.767Z,393.75
2018-04-20T08:26:01.830Z,399.38
2018-04-20T08:27:01.912Z,399.38
2018-04-20T08:28:02.335Z,405.00
2018-04-20T08:29:02.062Z,399.38
2018-04-20T08:30:02.087Z,405.00
2018-04-20T08:31:02.147Z,405.00
2018-04-20T08:32:02.211Z,405.00
2018-04-20T08:33:02.283Z,405.00
2018-04-20T08:34:02.336Z,405.00
2018-04-20T08:35:02.399Z,405.00
2018-04-20T08:36:02.523Z,410.63
2018-04-20T08:37:02.526Z,410.63
2018-04-20T08:38:02.590Z,410.63
2018-04-20T08:39:02.671Z,421.88
2018-04-20T08:40:02.716Z,421.88
2018-04-20T08:41:02.781Z,416.25
2018-04-20T08:42:02.928Z,416.25
2018-04-20T08:43:02.907Z,421.88
2018-04-20T08:44:02.970Z,421.88
2018-04-20T08:45:03.038Z,421.88
2018-04-20T08:46:03.099Z,427.50
2018-04-20T08:47:03.162Z,427.50
2018-04-20T08:48:03.228Z,427.50
2018-04-20T08:49:03.295Z,433.13
2018-04-20T08:50:03.353Z,433.13
2018-04-20T08:51:03.418Z,433.13
2018-04-20T08:52:03.484Z,433.13
2018-04-20T08:53:03.545Z,438.75
2018-04-20T08:54:03.610Z,438.75
2018-04-20T08:55:03.674Z,438.75
2018-04-20T08:56:04.061Z,444.38
2018-04-20T08:57:03.868Z,444.38
2018-04-20T08:58:03.867Z,444.38
2018-04-20T08:59:03.931Z,444.38
2018-04-20T09:00:03.996Z,450.00
2018-04-20T09:01:04.058Z,455.63
2018-04-20T09:02:04.126Z,450.00
2018-04-20T09:03:04.188Z,455.63
2018-04-20T09:04:04.266Z,455.63
2018-04-20T09:05:04.317Z,455.63
2018-04-20T09:06:04.381Z,455.63
2018-04-20T09:07:04.448Z,461.25
2018-04-20T09:08:04.511Z,461.25
2018-04-20T09:09:04.574Z,461.25
2018-04-20T09:10:04.640Z,466.88
2018-04-20T09:11:04.705Z,466.88
2018-04-20T09:12:04.793Z,466.88
2018-04-20T09:13:04.834Z,472.50
2018-04-20T09:14:04.898Z,472.50
2018-04-20T09:15:04.964Z,472.50
2018-04-20T09:16:05.028Z,478.13
2018-04-20T09:17:05.244Z,478.13
2018-04-20T09:18:05.161Z,478.13
2018-04-20T09:19:05.233Z,478.13
2018-04-20T09:20:05.289Z,478.13
2018-04-20T09:21:05.353Z,483.75
2018-04-20T09:22:05.420Z,483.75
2018-04-20T09:23:05.483Z,483.75
2018-04-20T09:24:05.557Z,483.75
2018-04-20T09:25:05.613Z,489.38
2018-04-20T09:26:05.679Z,489.38
2018-04-20T09:27:05.746Z,489.38
2018-04-20T09:28:05.812Z,489.38
2018-04-20T09:29:05.875Z,495.00
2018-04-20T09:30:05.945Z,500.63
2018-04-20T09:31:06.008Z,495.00
2018-04-20T09:32:06.073Z,495.00
2018-04-20T09:33:06.140Z,500.63
2018-04-20T09:34:06.204Z,500.63
2018-04-20T09:35:06.521Z,500.63
2018-04-20T09:36:06.341Z,506.25
2018-04-20T09:37:06.401Z,506.25
2018-04-20T09:38:06.467Z,506.25
2018-04-20T09:39:06.537Z,511.88
2018-04-20T09:40:06.605Z,511.88
2018-04-20T09:41:06.664Z,517.50
2018-04-20T09:42:07.043Z,523.13
2018-04-20T09:43:06.797Z,517.50
2018-04-20T09:44:06.862Z,523.13
2018-04-20T09:45:06.928Z,523.13
2018-04-20T09:46:06.993Z,523.13
2018-04-20T09:47:07.061Z,528.75
2018-04-20T09:48:07.131Z,528.75
2018-04-20T09:49:07.195Z,528.75
2018-04-20T09:50:07.258Z,534.38
2018-04-20T09:51:07.325Z,534.38
2018-04-20T09:52:07.392Z,540.00
2018-04-20T09:53:07.462Z,540.00
2018-04-20T09:54:07.525Z,540.00
2018-04-20T09:55:07.592Z,545.63
2018-04-20T09:56:07.661Z,545.63
2018-04-20T09:57:07.875Z,545.63
2018-04-20T09:58:07.795Z,551.25
2018-04-20T09:59:07.858Z,551.25
2018-04-20T10:00:07.925Z,556.88
2018-04-20T10:01:07.991Z,562.50
2018-04-20T10:02:08.058Z,556.88
2018-04-20T10:03:08.125Z,556.88
2018-04-20T10:04:08.200Z,562.50
2018-04-20T10:05:08.257Z,562.50
2018-04-20T10:06:08.326Z,568.13
2018-04-20T10:07:08.392Z,568.13
2018-04-20T10:08:08.461Z,568.13
2018-04-20T10:09:08.527Z,579.38
2018-04-20T10:10:08.598Z,573.75
2018-04-20T10:11:08.663Z,579.38
2018-04-20T10:12:08.734Z,579.38
2018-04-20T10:13:08.801Z,585.00
2018-04-20T10:14:08.867Z,585.00
2018-04-20T10:15:08.931Z,585.00
2018-04-20T10:16:09.000Z,590.63
2018-04-20T10:17:09.070Z,590.63
2018-04-20T10:18:09.135Z,590.63
2018-04-20T10:19:09.209Z,601.88
2018-04-20T10:20:09.272Z,601.88
2018-04-20T10:21:09.339Z,607.50
2018-04-20T10:22:09.407Z,618.75
2018-04-20T10:23:09.479Z,624.38
2018-04-20T10:24:09.552Z,630.00
2018-04-20T10:25:09.611Z,646.88
2018-04-20T10:26:09.681Z,658.13
2018-04-20T10:27:09.749Z,686.25
2018-04-20T10:28:09.818Z,742.50
2018-04-20T10:29:09.885Z,1096.88
2018-04-20T10:30:09.954Z,1636.88
2018-04-20T10:31:10.025Z,1828.13
2018-04-20T10:32:10.094Z,1845.00
2018-04-20T10:33:10.210Z,1845.00
2018-04-20T10:34:10.233Z,1839.38
2018-04-20T10:35:10.304Z,1828.13
2018-04-20T10:36:10.374Z,1828.13
2018-04-20T10:37:10.445Z,1828.13
2018-04-20T10:38:10.516Z,1816.88
2018-04-20T10:39:10.589Z,1805.63
2018-04-20T10:40:10.661Z,1800.00
2018-04-20T10:41:10.731Z,1800.00
2018-04-20T10:42:10.955Z,1800.00
2018-04-20T10:43:10.876Z,1788.75
2018-04-20T10:44:10.985Z,1777.50
2018-04-20T10:45:11.027Z,1766.25
2018-04-20T10:46:11.099Z,1760.63
2018-04-20T10:47:11.170Z,1760.63
2018-04-20T10:48:11.248Z,1738.13
2018-04-20T10:49:11.319Z,1726.88
2018-04-20T10:50:11.394Z,1726.88
2018-04-20T10:51:11.469Z,1715.63
2018-04-20T10:52:11.544Z,1704.38
2018-04-20T10:53:11.618Z,1687.50
2018-04-20T10:54:11.700Z,1681.88
2018-04-20T10:55:11.820Z,1676.25
2018-04-20T10:56:11.851Z,1670.63
2018-04-20T10:57:11.923Z,1665.00
2018-04-20T10:58:12.148Z,1659.38
2018-04-20T10:59:12.074Z,1653.75
2018-04-20T11:00:12.151Z,1648.13
2018-04-20T11:01:12.226Z,1648.13
2018-04-20T11:02:12.303Z,1648.13
2018-04-20T11:03:12.381Z,1648.13
2018-04-20T11:04:12.457Z,1648.13
2018-04-20T11:05:12.534Z,1653.75
2018-04-20T11:06:12.611Z,1659.38
2018-04-20T11:07:12.688Z,1665.00
2018-04-20T11:08:12.766Z,1681.88
2018-04-20T11:09:12.843Z,1670.63
2018-04-20T11:10:12.921Z,1687.50
2018-04-20T11:11:13.006Z,1710.00
2018-04-20T11:12:13.076Z,1715.63
2018-04-20T11:13:13.153Z,1732.50
2018-04-20T11:14:13.231Z,1766.25
2018-04-20T11:15:13.309Z,1800.00
2018-04-20T11:16:13.388Z,1833.75
2018-04-20T11:17:13.468Z,1890.00
2018-04-20T11:18:13.545Z,1968.75
2018-04-20T11:19:13.622Z,2058.75
2018-04-20T11:20:13.699Z,2160.00
2018-04-20T11:21:13.776Z,2295.00
2018-04-20T11:22:14.106Z,2441.25
2018-04-20T11:23:13.933Z,2666.25
2018-04-20T11:24:14.013Z,2896.88
2018-04-20T11:25:14.091Z,3121.88
2018-04-20T11:26:14.168Z,3330.00
2018-04-20T11:27:14.248Z,3555.00
2018-04-20T11:28:14.330Z,3729.38
2018-04-20T11:29:14.445Z,3909.38
2018-04-20T11:30:14.482Z,4066.88
2018-04-20T11:31:14.560Z,4145.63
2018-04-20T11:32:14.640Z,4168.13
2018-04-20T11:33:14.717Z,4140.00
2018-04-20T11:34:14.796Z,4044.38
2018-04-20T11:35:14.874Z,3999.38
2018-04-20T11:36:14.952Z,3960.00
2018-04-20T11:37:15.032Z,3909.38
2018-04-20T11:38:15.109Z,3881.25
2018-04-20T11:39:15.193Z,3825.00
2018-04-20T11:40:15.267Z,3785.63
2018-04-20T11:41:15.346Z,3836.25
2018-04-20T11:42:15.427Z,3785.63
2018-04-20T11:43:15.505Z,3780.00
2018-04-20T11:44:18.849Z,3808.13
2018-04-20T11:45:15.663Z,3847.50
2018-04-20T11:46:15.740Z,3870.00
2018-04-20T11:47:15.819Z,3864.38
2018-04-20T11:48:15.900Z,3886.88
2018-04-20T11:49:16.001Z,3915.00
2018-04-20T11:50:16.059Z,3931.88
2018-04-20T11:51:16.141Z,4016.25
2018-04-20T11:52:16.217Z,4078.13
2018-04-20T11:53:16.297Z,4089.38
2018-04-20T11:54:16.375Z,4100.63
2018-04-20T11:55:16.462Z,4151.25
2018-04-20T11:56:16.540Z,4185.00
2018-04-20T11:57:16.613Z,4246.88
2018-04-20T11:59:16.771Z,4162.50
2018-04-20T12:00:17.000Z,4117.50
2018-04-20T12:01:16.929Z,4095.00
2018-04-20T12:02:17.026Z,4083.75
2018-04-20T12:03:17.087Z,4128.75
2018-04-20T12:04:17.167Z,4106.25
2018-04-20T12:05:17.243Z,4072.50
2018-04-20T12:06:17.377Z,4100.63
2018-04-20T12:07:17.403Z,4095.00
2018-04-20T12:08:17.481Z,4061.25
2018-04-20T12:09:17.558Z,4061.25
2018-04-20T12:10:17.642Z,4061.25
2018-04-20T12:11:17.717Z,4038.75
2018-04-20T12:12:17.796Z,3982.50
2018-04-20T12:13:17.874Z,3937.50
2018-04-20T12:14:17.966Z,3954.38
2018-04-20T12:15:18.033Z,3909.38
2018-04-20T12:16:18.111Z,3909.38
2018-04-20T12:17:18.190Z,3954.38
2018-04-20T12:18:18.421Z,3982.50
2018-04-20T12:19:18.347Z,3960.00
2018-04-20T12:20:18.427Z,3909.38
2018-04-20T12:21:18.522Z,3886.88
2018-04-20T12:22:18.588Z,3915.00
2018-04-20T12:23:18.663Z,3881.25
2018-04-20T12:24:18.740Z,3836.25
2018-04-20T12:25:19.274Z,3802.50
2018-04-20T12:26:18.898Z,3774.38
2018-04-20T12:27:18.986Z,3712.50
2018-04-20T12:28:19.057Z,3684.38
2018-04-20T12:29:19.134Z,3718.13
2018-04-20T12:30:19.213Z,3723.75
2018-04-20T12:31:19.291Z,3605.63
2018-04-20T12:32:19.371Z,3678.75
2018-04-20T12:33:19.448Z,3695.63
2018-04-20T12:34:19.528Z,3718.13
2018-04-20T12:35:19.757Z,3684.38
2018-04-20T12:36:19.689Z,3701.25
2018-04-20T12:37:19.764Z,3695.63
2018-04-20T12:38:19.841Z,3645.00
2018-04-20T12:39:19.921Z,3605.63
2018-04-20T12:40:19.998Z,3594.38
2018-04-20T12:41:20.109Z,3622.50
2018-04-20T12:42:20.156Z,3583.13
2018-04-20T12:43:20.236Z,3560.63
2018-04-20T12:44:20.371Z,3453.75